createdAt,value
2018-02-24T00:01:48.487Z,-4.60
2018-02-24T00:04:16.790Z,-4.50
2018-02-24T00:06:44.316Z,-4.60
2018-02-24T00:09:12.590Z,-4.60
2018-02-24T00:11:40.112Z,-4.60
2018-02-24T00:14:07.612Z,-4.60
2018-02-24T00:16:36.165Z,-4.60
2018-02-24T00:19:03.708Z,-4.70
2018-02-24T00:21:31.238Z,-4.70
2018-02-24T00:23:58.744Z,-4.60
2018-02-24T00:26:26.315Z,-4.60
2018-02-24T00:28:54.080Z,-4.70
2018-02-24T00:31:22.371Z,-4.70
2018-02-24T00:33:50.635Z,-4.70
2018-02-24T00:36:18.122Z,-4.70
2018-02-24T00:38:45.625Z,-4.50
2018-02-24T00:41:13.128Z,-4.60
2018-02-24T00:43:40.599Z,-4.60
2018-02-24T00:46:08.143Z,-4.70
2018-02-24T00:48:36.709Z,-4.70
2018-02-24T00:51:04.189Z,-4.70
2018-02-24T00:53:31.676Z,-4.70
2018-02-24T00:55:59.211Z,-4.80
2018-02-24T00:58:26.762Z,-4.70
2018-02-24T01:00:55.012Z,-4.80
2018-02-24T01:03:22.518Z,-4.80
2018-02-24T01:05:50.033Z,-4.80
2018-02-24T01:08:17.507Z,-4.80
2018-02-24T01:10:45.052Z,-4.80
2018-02-24T01:13:13.320Z,-4.80
2018-02-24T01:15:40.801Z,-5.00
2018-02-24T01:18:09.126Z,-4.90
2018-02-24T01:20:36.656Z,-5.10
2018-02-24T01:23:04.199Z,-4.80
2018-02-24T01:25:31.670Z,-4.10
2018-02-24T01:27:59.180Z,-5.00
2018-02-24T01:30:27.063Z,-4.90
2018-02-24T01:32:54.588Z,-5.00
2018-02-24T01:35:22.085Z,-5.10
2018-02-24T01:37:50.356Z,-5.00
2018-02-24T01:40:18.627Z,-5.10
2018-02-24T01:42:46.293Z,-5.10
2018-02-24T01:45:13.885Z,-5.10
2018-02-24T01:47:41.840Z,-5.20
2018-02-24T01:50:09.398Z,-5.10
2018-02-24T01:52:36.922Z,-5.10
2018-02-24T01:55:04.525Z,-5.10
2018-02-24T01:57:32.061Z,-5.10
2018-02-24T02:00:00.568Z,-5.10
2018-02-24T02:02:28.102Z,-4.90
2018-02-24T02:04:56.435Z,-5.20
2018-02-24T02:07:25.051Z,-5.00
2018-02-24T02:09:52.540Z,-5.30
2018-02-24T02:12:20.097Z,-5.30
2018-02-24T02:14:47.628Z,-5.30
2018-02-24T02:17:15.144Z,-5.30
2018-02-24T02:19:42.664Z,-5.30
2018-02-24T02:22:10.179Z,-5.40
2018-02-24T02:24:38.091Z,-5.40
2018-02-24T02:27:05.833Z,-5.40
2018-02-24T02:29:33.398Z,-5.50
2018-02-24T02:32:01.125Z,-5.70
2018-02-24T02:34:28.829Z,-5.70
2018-02-24T02:36:57.132Z,-5.80
2018-02-24T02:39:24.658Z,-5.70
2018-02-24T02:41:53.034Z,-5.80
2018-02-24T02:44:22.149Z,-5.80
2018-02-24T02:46:49.650Z,-5.80
2018-02-24T02:49:17.517Z,-5.80
2018-02-24T02:51:45.008Z,-5.70
2018-02-24T02:54:12.489Z,-5.60
2018-02-24T02:56:40.828Z,-5.60
2018-02-24T02:59:08.324Z,-5.70
2018-02-24T03:01:36.053Z,-5.60
2018-02-24T03:04:03.595Z,-5.60
2018-02-24T03:06:31.139Z,-5.40
2018-02-24T03:08:58.680Z,-5.10
2018-02-24T03:11:26.190Z,-5.60
2018-02-24T03:13:53.763Z,-5.70
2018-02-24T03:16:22.037Z,-5.50
2018-02-24T03:18:49.982Z,-5.60
2018-02-24T03:21:17.487Z,-5.70
2018-02-24T03:23:44.975Z,-5.10
2018-02-24T03:26:12.507Z,-5.70
2018-02-24T03:28:40.013Z,-5.60
2018-02-24T03:31:07.497Z,-5.60
2018-02-24T03:33:35.051Z,-5.60
2018-02-24T03:36:02.589Z,-5.40
2018-02-24T03:38:30.129Z,-5.80
2018-02-24T03:40:57.634Z,-5.70
2018-02-24T03:43:25.162Z,-5.50
2018-02-24T03:48:54.892Z,-5.30
2018-02-24T03:51:22.372Z,-5.60
2018-02-24T03:53:49.829Z,-5.80
2018-02-24T03:56:17.352Z,-5.50
2018-02-24T03:59:03.915Z,-5.70
2018-02-24T04:01:31.431Z,-5.70
2018-02-24T04:04:19.453Z,-5.80
2018-02-24T04:06:46.978Z,-5.80
2018-02-24T04:09:15.313Z,-5.80
2018-02-24T04:11:42.867Z,-5.80
2018-02-24T04:14:11.163Z,-5.60
2018-02-24T04:16:38.674Z,-5.70
2018-02-24T04:19:06.176Z,-5.80
2018-02-24T04:21:33.714Z,-5.80
2018-02-24T04:24:01.305Z,-5.70
2018-02-24T04:26:32.836Z,-5.80
2018-02-24T04:29:00.336Z,-5.70
2018-02-24T04:31:27.868Z,-5.70
2018-02-24T04:33:55.367Z,-5.50
2018-02-24T04:36:22.896Z,-5.80
2018-02-24T04:38:50.408Z,-5.70
2018-02-24T04:41:18.692Z,-5.80
2018-02-24T04:43:46.221Z,-5.70
2018-02-24T04:46:13.742Z,-5.80
2018-02-24T04:48:41.242Z,-6.00
2018-02-24T04:51:08.731Z,-6.20
2018-02-24T04:53:36.258Z,-6.30
2018-02-24T04:56:03.769Z,-6.40
2018-02-24T04:58:32.047Z,-6.60
2018-02-24T05:00:59.594Z,-6.60
2018-02-24T05:03:27.066Z,-6.70
2018-02-24T05:05:54.551Z,-6.80
2018-02-24T05:08:22.054Z,-6.70
2018-02-24T05:10:49.531Z,-6.70
2018-02-24T05:13:17.057Z,-6.50
2018-02-24T05:15:44.543Z,-5.80
2018-02-24T05:18:12.440Z,-6.10
2018-02-24T05:20:40.356Z,-6.00
2018-02-24T05:23:08.596Z,-6.20
2018-02-24T05:25:36.117Z,-6.20
2018-02-24T05:28:03.648Z,-6.30
2018-02-24T05:30:31.178Z,-6.60
2018-02-24T05:32:58.671Z,-6.70
2018-02-24T05:35:26.170Z,-6.80
2018-02-24T05:37:54.432Z,-7.10
2018-02-24T05:40:22.693Z,-7.00
2018-02-24T05:42:50.206Z,-7.00
2018-02-24T05:45:17.703Z,-7.00
2018-02-24T05:47:45.196Z,-6.20
2018-02-24T05:50:12.715Z,-6.70
2018-02-24T05:52:40.477Z,-6.40
2018-02-24T05:55:07.977Z,-6.30
2018-02-24T05:57:36.286Z,-6.80
2018-02-24T06:00:03.799Z,-6.90
2018-02-24T06:02:31.318Z,-6.90
2018-02-24T06:04:59.562Z,-6.60
2018-02-24T06:07:27.082Z,-6.40
2018-02-24T06:09:54.611Z,-6.70
2018-02-24T06:12:22.104Z,-6.30
2018-02-24T06:14:49.602Z,-6.50
2018-02-24T06:17:17.101Z,-6.50
2018-02-24T06:19:44.620Z,-6.50
2018-02-24T06:22:12.123Z,-6.40
2018-02-24T06:24:39.603Z,-6.60
2018-02-24T06:27:07.330Z,-6.10
2018-02-24T06:29:34.808Z,-5.90
2018-02-24T06:32:03.901Z,-5.80
2018-02-24T06:34:33.206Z,-5.80
2018-02-24T06:37:00.959Z,-5.70
2018-02-24T06:39:28.691Z,-5.70
2018-02-24T06:41:56.512Z,-5.80
2018-02-24T06:44:24.832Z,-6.10
2018-02-24T06:46:52.538Z,-6.20
2018-02-24T06:49:21.133Z,-6.20
2018-02-24T06:51:48.684Z,-5.90
2018-02-24T06:54:16.951Z,-6.50
2018-02-24T06:56:44.447Z,-6.60
2018-02-24T06:59:12.169Z,-6.50
2018-02-24T07:01:39.733Z,-6.20
2018-02-24T07:04:07.274Z,-6.50
2018-02-24T07:06:34.789Z,-6.50
2018-02-24T07:09:02.315Z,-6.00
2018-02-24T07:11:29.856Z,-6.10
2018-02-24T07:13:57.346Z,-6.00
2018-02-24T07:16:24.939Z,-6.10
2018-02-24T07:18:52.448Z,-5.90
2018-02-24T07:21:20.011Z,-5.80
2018-02-24T07:23:48.356Z,-5.80
2018-02-24T07:26:15.885Z,-5.30
2018-02-24T07:28:44.207Z,-5.10
2018-02-24T07:31:12.588Z,-4.90
2018-02-24T07:33:45.537Z,-5.00
2018-02-24T07:36:20.947Z,-4.80
2018-02-24T07:38:53.689Z,-4.60
2018-02-24T07:41:24.439Z,-4.40
2018-02-24T07:43:52.935Z,-3.60
2018-02-24T07:46:20.568Z,-3.60
2018-02-24T07:48:48.059Z,-3.10
2018-02-24T07:51:15.599Z,-3.10
2018-02-24T07:53:44.042Z,-2.90
2018-02-24T07:56:11.553Z,-2.90
2018-02-24T07:58:39.086Z,-2.90
2018-02-24T08:01:07.229Z,-3.00
2018-02-24T08:03:35.393Z,-2.90
2018-02-24T08:06:03.019Z,-3.10
2018-02-24T08:08:30.548Z,-3.00
2018-02-24T08:10:58.045Z,-3.10
2018-02-24T08:13:25.563Z,-3.10
2018-02-24T08:15:53.083Z,-2.90
2018-02-24T08:18:21.184Z,-2.90
2018-02-24T08:20:48.704Z,-2.90
2018-02-24T08:23:16.345Z,-2.50
2018-02-24T08:25:44.606Z,-2.70
2018-02-24T08:28:12.874Z,-2.70
2018-02-24T08:30:40.415Z,-2.70
2018-02-24T08:33:07.911Z,-2.60
2018-02-24T08:35:35.676Z,-2.40
2018-02-24T08:38:03.164Z,-2.30
2018-02-24T08:40:31.068Z,-2.40
2018-02-24T08:42:58.827Z,-2.30
2018-02-24T08:45:26.560Z,-2.30
2018-02-24T08:47:54.080Z,-2.30
2018-02-24T08:50:21.625Z,-2.10
2018-02-24T08:52:49.150Z,-2.30
2018-02-24T08:55:16.615Z,-1.80
2018-02-24T08:57:44.376Z,-2.00
2018-02-24T09:00:11.859Z,-2.00
2018-02-24T09:02:43.703Z,-2.00
2018-02-24T09:05:11.211Z,-2.00
2018-02-24T09:07:38.967Z,-1.80
2018-02-24T09:10:07.277Z,-1.70
2018-02-24T09:12:34.782Z,-1.70
2018-02-24T09:15:02.265Z,-1.40
2018-02-24T09:17:29.785Z,-1.20
2018-02-24T09:19:57.278Z,-0.90
2018-02-24T09:22:24.815Z,-1.20
2018-02-24T09:24:53.091Z,-1.00
2018-02-24T09:27:20.730Z,-1.00
2018-02-24T09:29:48.235Z,-0.80
2018-02-24T09:32:15.751Z,-0.70
2018-02-24T09:34:43.296Z,-0.60
2018-02-24T09:37:10.805Z,-0.70
2018-02-24T09:39:38.541Z,-0.70
2018-02-24T09:42:06.867Z,-0.50
2018-02-24T09:44:34.555Z,-0.10
2018-02-24T09:47:02.112Z,-0.40
2018-02-24T09:49:29.612Z,-0.40
2018-02-24T09:51:57.868Z,-0.10
2018-02-24T09:54:25.381Z,-0.10
2018-02-24T09:56:53.102Z,0.00
2018-02-24T09:59:20.670Z,0.50
2018-02-24T10:01:48.935Z,0.50
2018-02-24T10:04:16.467Z,0.50
2018-02-24T10:06:44.142Z,0.40
2018-02-24T10:09:11.923Z,0.50
2018-02-24T10:11:39.452Z,0.60
2018-02-24T10:14:06.966Z,0.90
2018-02-24T10:16:34.772Z,1.00
2018-02-24T10:19:03.078Z,0.90
2018-02-24T10:21:30.572Z,1.10
2018-02-24T10:23:58.075Z,1.30
2018-02-24T10:26:25.578Z,1.50
2018-02-24T10:28:53.083Z,1.30
2018-02-24T10:31:20.573Z,1.30
2018-02-24T10:33:48.789Z,1.40
2018-02-24T10:36:16.277Z,1.40
2018-02-24T10:38:43.891Z,1.30
2018-02-24T10:41:11.761Z,1.50
2018-02-24T10:43:39.292Z,1.70
2018-02-24T10:46:06.837Z,1.90
2018-02-24T10:48:34.580Z,1.70
2018-02-24T10:51:02.066Z,1.70
2018-02-24T10:53:31.217Z,2.10
2018-02-24T10:55:58.728Z,2.00
2018-02-24T10:58:26.624Z,2.00
2018-02-24T11:00:55.115Z,1.70
2018-02-24T11:03:22.826Z,2.00
2018-02-24T11:05:50.443Z,2.20
2018-02-24T11:08:18.926Z,2.30
2018-02-24T11:10:46.618Z,2.60
2018-02-24T11:13:14.198Z,2.50
2018-02-24T11:15:41.725Z,2.20
2018-02-24T11:18:10.063Z,2.00
2018-02-24T11:20:37.670Z,2.10
2018-02-24T11:23:05.219Z,2.40
2018-02-24T11:25:32.828Z,2.50
2018-02-24T11:28:01.090Z,2.30
2018-02-24T11:30:28.638Z,2.30
2018-02-24T11:32:56.104Z,2.60
2018-02-24T11:35:23.579Z,2.50
2018-02-24T11:37:51.831Z,2.20
2018-02-24T11:40:19.308Z,2.10
2018-02-24T11:42:47.591Z,2.60
2018-02-24T11:45:16.301Z,2.50
2018-02-24T11:47:44.139Z,2.40
2018-02-24T11:50:11.770Z,3.00
2018-02-24T11:52:39.314Z,2.70
2018-02-24T11:55:06.931Z,2.60
2018-02-24T11:57:34.468Z,2.60
2018-02-24T12:00:03.636Z,2.80
2018-02-24T12:02:31.141Z,2.80
2018-02-24T12:04:58.637Z,3.00
2018-02-24T12:07:26.129Z,2.90
2018-02-24T12:09:53.669Z,3.00
2018-02-24T12:12:22.002Z,3.30
2018-02-24T12:14:52.364Z,3.20
2018-02-24T12:17:22.377Z,3.20
2018-02-24T12:19:49.885Z,2.70
2018-02-24T12:22:23.699Z,3.00
2018-02-24T12:24:51.220Z,3.00
2018-02-24T12:27:18.886Z,3.10
2018-02-24T12:29:47.513Z,3.30
2018-02-24T12:32:15.987Z,3.40
2018-02-24T12:34:44.932Z,3.60
2018-02-24T12:37:13.219Z,3.60
2018-02-24T12:39:40.810Z,3.60
2018-02-24T12:42:09.148Z,3.50
2018-02-24T12:44:36.653Z,3.80
2018-02-24T12:47:04.132Z,3.60
2018-02-24T12:49:32.953Z,3.70
2018-02-24T12:52:04.004Z,3.50
2018-02-24T13:00:19.380Z,3.70
2018-02-24T13:02:46.884Z,3.80
2018-02-24T13:05:14.503Z,3.80
2018-02-24T13:07:42.069Z,3.80
2018-02-24T13:10:09.652Z,3.60
2018-02-24T13:12:37.931Z,4.10
2018-02-24T13:15:05.430Z,4.00
2018-02-24T13:17:33.257Z,3.90
2018-02-24T13:20:01.562Z,4.00
2018-02-24T13:22:29.119Z,4.00
2018-02-24T13:24:57.369Z,4.30
2018-02-24T13:27:24.867Z,4.30
2018-02-24T13:29:52.422Z,4.30
2018-02-24T13:32:19.956Z,4.30
2018-02-24T13:34:48.191Z,4.60
2018-02-24T13:37:15.700Z,4.50
2018-02-24T13:39:43.231Z,5.00
2018-02-24T13:42:10.740Z,5.10
2018-02-24T13:44:38.244Z,4.40
2018-02-24T13:47:05.732Z,4.50
2018-02-24T13:49:34.244Z,4.50
2018-02-24T13:52:02.826Z,4.50
2018-02-24T13:54:30.649Z,4.30
2018-02-24T13:56:58.223Z,4.20
2018-02-24T13:59:25.764Z,4.30
2018-02-24T14:01:54.258Z,4.40
2018-02-24T14:04:22.612Z,5.10
2018-02-24T14:06:50.122Z,5.10
2018-02-24T14:09:17.679Z,4.80
2018-02-24T14:11:45.280Z,4.50
2018-02-24T14:14:12.843Z,4.50
2018-02-24T14:16:40.407Z,4.80
2018-02-24T14:19:10.168Z,4.90
2018-02-24T14:21:38.508Z,5.10
2018-02-24T14:24:06.808Z,5.00
2018-02-24T14:26:34.410Z,4.90
2018-02-24T14:29:01.946Z,4.90
2018-02-24T14:31:29.504Z,4.70
2018-02-24T14:33:58.125Z,4.70
2018-02-24T14:36:25.794Z,4.70
2018-02-24T14:38:53.478Z,4.00
2018-02-24T14:41:21.794Z,3.80
2018-02-24T14:43:49.354Z,3.50
2018-02-24T14:46:16.892Z,3.80
2018-02-24T14:48:44.745Z,3.90
2018-02-24T14:54:09.944Z,2.80
2018-02-24T14:56:38.232Z,3.20
2018-02-24T14:59:09.588Z,3.40
2018-02-24T15:01:37.188Z,3.10
2018-02-24T15:04:04.782Z,3.00
2018-02-24T15:06:32.294Z,2.70
2018-02-24T15:08:59.835Z,2.50
2018-02-24T15:11:31.096Z,2.70
2018-02-24T15:13:58.633Z,2.30
2018-02-24T15:16:26.555Z,2.80
2018-02-24T15:18:54.476Z,2.60
2018-02-24T15:21:21.990Z,2.60
2018-02-24T15:23:49.519Z,2.30
2018-02-24T15:26:17.699Z,2.30
2018-02-24T15:28:45.402Z,1.90
2018-02-24T15:31:18.675Z,2.20
2018-02-24T15:33:46.232Z,1.90
2018-02-24T15:36:14.012Z,2.00
2018-02-24T15:38:41.713Z,2.80
2018-02-24T15:41:09.246Z,3.00
2018-02-24T15:43:36.753Z,3.50
2018-02-24T15:46:07.095Z,3.50
2018-02-24T15:48:34.578Z,3.10
2018-02-24T15:51:02.180Z,2.50
2018-02-24T15:53:29.724Z,2.10
2018-02-24T15:56:02.286Z,1.50
2018-02-24T15:58:29.791Z,0.90
2018-02-24T16:00:58.189Z,0.70
2018-02-24T16:03:25.660Z,0.30
2018-02-24T16:05:53.162Z,0.00
2018-02-24T16:08:21.890Z,0.00
2018-02-24T16:10:49.423Z,-0.10
2018-02-24T16:13:16.972Z,0.00
2018-02-24T16:15:44.507Z,-0.60
2018-02-24T16:18:12.046Z,-0.40
2018-02-24T16:20:39.576Z,-0.20
2018-02-24T16:23:07.175Z,-0.60
2018-02-24T16:25:34.663Z,-0.70
2018-02-24T16:28:02.160Z,-0.80
2018-02-24T16:30:35.714Z,-0.70
2018-02-24T16:33:03.980Z,-1.00
2018-02-24T16:35:31.476Z,-1.00
2018-02-24T16:37:58.982Z,-1.00
2018-02-24T16:40:27.262Z,-1.00
2018-02-24T16:42:54.754Z,-1.20
2018-02-24T16:45:22.252Z,-1.40
2018-02-24T16:47:49.759Z,-1.40
2018-02-24T16:50:18.049Z,-1.40
2018-02-24T16:52:45.524Z,-1.40
2018-02-24T16:55:13.106Z,-1.50
2018-02-24T16:57:40.608Z,-1.50
2018-02-24T17:00:08.090Z,-1.50
2018-02-24T17:02:36.046Z,-1.70
2018-02-24T17:05:04.940Z,-1.70
2018-02-24T17:07:33.316Z,-1.70
2018-02-24T17:10:01.599Z,-1.70
2018-02-24T17:12:29.598Z,-1.70
2018-02-24T17:14:57.175Z,-1.60
2018-02-24T17:17:24.779Z,-1.90
2018-02-24T17:19:52.827Z,-1.90
2018-02-24T17:22:25.574Z,-2.00
2018-02-24T17:24:53.923Z,-2.00
2018-02-24T17:27:28.387Z,-2.50
2018-02-24T17:29:58.111Z,-2.00
2018-02-24T17:32:26.191Z,-2.20
2018-02-24T17:35:21.148Z,-2.30
2018-02-24T17:37:49.225Z,-1.80
2018-02-24T17:40:16.851Z,-2.20
2018-02-24T17:42:44.416Z,-2.40
2018-02-24T17:45:12.379Z,-2.40
2018-02-24T17:47:41.648Z,-4.80
2018-02-24T17:50:10.011Z,-2.30
2018-02-24T17:52:37.552Z,-2.40
2018-02-24T17:58:01.862Z,-1.90
2018-02-24T18:00:30.545Z,-2.50
2018-02-24T18:03:03.790Z,-2.50
2018-02-24T18:05:32.312Z,-2.60
2018-02-24T18:07:59.908Z,-2.50
2018-02-24T18:10:28.251Z,-2.60
2018-02-24T18:12:55.868Z,-2.50
2018-02-24T18:15:23.575Z,-2.90
2018-02-24T18:17:51.259Z,-2.70
2018-02-24T18:20:18.896Z,-2.60
2018-02-24T18:22:46.579Z,-2.80
2018-02-24T18:25:14.641Z,-2.70
2018-02-24T18:27:42.153Z,-2.70
2018-02-24T18:30:25.944Z,-2.70
2018-02-24T18:32:53.461Z,-2.70
2018-02-24T18:35:21.811Z,-2.80
2018-02-24T18:37:50.149Z,-2.70
2018-02-24T18:40:17.686Z,-2.70
2018-02-24T18:42:45.180Z,-2.80
2018-02-24T18:45:12.820Z,-2.80
2018-02-24T18:47:40.502Z,-2.80
2018-02-24T18:50:09.548Z,-2.80
2018-02-24T18:52:37.116Z,-2.80
2018-02-24T18:55:04.645Z,-2.70
2018-02-24T18:57:32.210Z,-2.80
2018-02-24T18:59:59.955Z,-2.80
2018-02-24T19:02:28.247Z,-2.90
2018-02-24T19:04:55.813Z,-2.70
2018-02-24T19:07:23.404Z,-2.80
2018-02-24T19:09:51.059Z,-2.80
2018-02-24T19:12:18.631Z,-2.80
2018-02-24T19:14:46.182Z,-2.80
2018-02-24T19:17:13.776Z,-2.80
2018-02-24T19:19:41.343Z,-2.90
2018-02-24T19:22:08.819Z,-2.90
2018-02-24T19:24:36.802Z,-2.90
2018-02-24T19:27:04.734Z,-2.90
2018-02-24T19:29:32.273Z,-2.90
2018-02-24T19:31:59.772Z,-2.80
2018-02-24T19:34:27.313Z,-3.10
2018-02-24T19:36:54.839Z,-2.90
2018-02-24T19:39:22.340Z,-2.90
2018-02-24T19:41:50.640Z,-3.00
2018-02-24T19:44:18.291Z,-2.90
2018-02-24T19:46:46.654Z,-3.10
2018-02-24T19:49:35.109Z,-3.10
2018-02-24T19:52:02.725Z,-3.00
2018-02-24T19:54:48.688Z,-2.90
2018-02-24T20:00:14.599Z,-3.10
2018-02-24T20:02:43.029Z,-3.10
2018-02-24T20:05:10.626Z,-2.70
2018-02-24T20:07:39.066Z,-3.10
2018-02-24T20:10:06.633Z,-3.10
2018-02-24T20:12:34.221Z,-3.10
2018-02-24T20:15:02.878Z,-3.00
2018-02-24T20:17:31.274Z,-5.90
2018-02-24T20:19:58.897Z,-3.10
2018-02-24T20:22:27.097Z,-3.00
2018-02-24T20:24:55.879Z,-3.20
2018-02-24T20:27:24.191Z,-3.30
2018-02-24T20:29:51.715Z,-3.20
2018-02-24T20:32:19.291Z,-3.10
2018-02-24T20:34:47.055Z,-3.20
2018-02-24T20:37:15.956Z,-3.80
2018-02-24T20:39:43.513Z,-3.10
2018-02-24T20:42:11.035Z,-3.30
2018-02-24T20:44:38.602Z,-3.00
2018-02-24T20:47:09.420Z,-3.00
2018-02-24T20:49:37.016Z,-3.50
2018-02-24T20:52:04.775Z,-3.40
2018-02-24T20:54:32.336Z,-3.40
2018-02-24T20:57:01.901Z,-3.50
2018-02-24T20:59:29.561Z,-3.80
2018-02-24T21:01:57.344Z,-3.50
2018-02-24T21:04:25.167Z,-3.50
2018-02-24T21:06:53.828Z,-3.50
2018-02-24T21:09:23.354Z,-3.30
2018-02-24T21:11:51.768Z,-3.60
2018-02-24T21:14:20.040Z,-3.50
2018-02-24T21:16:47.552Z,-3.60
2018-02-24T21:19:15.280Z,-3.70
2018-02-24T21:21:42.770Z,-3.70
2018-02-24T21:24:10.298Z,-3.70
2018-02-24T21:26:38.526Z,-3.40
2018-02-24T21:29:06.022Z,-3.30
2018-02-24T21:31:33.520Z,-3.60
2018-02-24T21:34:01.766Z,-3.60
2018-02-24T21:36:30.043Z,-3.60
2018-02-24T21:38:58.434Z,-3.70
2018-02-24T21:41:25.994Z,-3.80
2018-02-24T21:43:53.558Z,-3.60
2018-02-24T21:46:21.113Z,-3.90
2018-02-24T21:48:49.440Z,-3.90
2018-02-24T21:51:17.060Z,-3.90
2018-02-24T21:53:44.640Z,-3.80
2018-02-24T21:56:12.310Z,-4.10
2018-02-24T21:58:39.822Z,-4.20
2018-02-24T22:01:07.389Z,-3.60
2018-02-24T22:03:35.280Z,-3.90
2018-02-24T22:06:02.833Z,-4.10
2018-02-24T22:08:30.360Z,-4.10
2018-02-24T22:10:57.853Z,-4.00
2018-02-24T22:13:25.767Z,-3.90
2018-02-24T22:15:53.302Z,-4.10
2018-02-24T22:18:20.868Z,-4.10
2018-02-24T22:20:48.469Z,-4.10
2018-02-24T22:23:16.757Z,-4.20
2018-02-24T22:25:45.228Z,-4.20
2018-02-24T22:28:12.790Z,-4.40
2018-02-24T22:30:40.360Z,-4.20
2018-02-24T22:33:07.937Z,-4.20
2018-02-24T22:35:35.436Z,-4.00
2018-02-24T22:38:03.345Z,-4.10
2018-02-24T22:40:30.848Z,-4.20
2018-02-24T22:42:59.032Z,-4.40
2018-02-24T22:45:26.677Z,-4.30
2018-02-24T22:47:59.882Z,-4.50
2018-02-24T22:50:27.448Z,-4.50
2018-02-24T22:52:54.994Z,-4.40
2018-02-24T22:55:22.534Z,-4.40
2018-02-24T22:57:50.099Z,-4.30
2018-02-24T23:00:18.374Z,-4.50
2018-02-24T23:02:46.831Z,-4.60
2018-02-24T23:05:14.381Z,-4.50
2018-02-24T23:07:42.685Z,-4.50
2018-02-24T23:10:10.976Z,-4.60
2018-02-24T23:12:39.521Z,-4.60
2018-02-24T23:15:07.066Z,-4.80
2018-02-24T23:17:34.581Z,-4.60
2018-02-24T23:20:02.107Z,-4.50
2018-02-24T23:22:29.612Z,-4.30
2018-02-24T23:24:57.120Z,-4.70
2018-02-24T23:27:24.652Z,-4.50
2018-02-24T23:29:52.158Z,-4.80
2018-02-24T23:32:19.682Z,-4.50
2018-02-24T23:34:47.941Z,-4.80
2018-02-24T23:37:15.854Z,-4.80
2018-02-24T23:39:43.338Z,-4.70
2018-02-24T23:42:11.605Z,-4.80
2018-02-24T23:44:39.962Z,-4.90
2018-02-24T23:47:07.424Z,-5.80
2018-02-24T23:49:36.121Z,-4.90
2018-02-24T23:52:04.999Z,-4.90
2018-02-24T23:54:32.667Z,-5.00
2018-02-24T23:57:00.980Z,-4.90
2018-02-24T23:59:28.476Z,-5.00
